^^

Meteo Aereoporti Centro-Italia

 

 
LIRZ - Perugia S.Egidio (208 m.)
Dati ricevuti: 20/04/2018 22:50
Sereno
Sereno
 Vento da NNE
Vento: NNE 7 km/h
TEMPERATURA: 16°C
P.to di Rugiada: 7°C
Umidità: 55%
Pressione: 1020 hPa
Condizioni generali: Sereno
Visibilità: oltre 10 km
2018/04/20 20:50 LIRZ 202050Z 02004KT CAVOK 16/07 Q1020
 
LIPY - Ancona Falconara (12 m.)
Dati ricevuti: 20/04/2018 22:50
Sereno
Sereno
 Vento da S
Vento: S 6 km/h
TEMPERATURA: 14°C
P.to di Rugiada: 10°C
Umidità: 77%
Pressione: 1020 hPa
Condizioni generali: Sereno
Visibilità: oltre 10 km
2018/04/20 20:50 LIPY 202050Z 17003KT CAVOK 14/10 Q1020
 
LIPR - Rimini Miramare (12 m.)
Dati ricevuti: 20/04/2018 23:45
Sereno
Sereno
 Vento da calm
Vento: Calma
TEMPERATURA: 13°C
P.to di Rugiada: 11°C
Umidità: 88%
Pressione: 1020 hPa
Condizioni generali: Sereno
Visibilità: oltre 10 km
2018/04/20 21:45 LIPR 202145Z 00000KT CAVOK 13/11 Q1020
 
LIRF - Roma Fiumicino (2 m.)
Dati ricevuti: 20/04/2018 23:50
Sereno
Sereno
 Vento da SE
Vento: SE 9 km/h
TEMPERATURA: 17°C
P.to di Rugiada: 15°C
Umidità: 88%
Pressione: 1019 hPa
Condizioni generali: Sereno
Visibilità: oltre 10 km
2018/04/20 21:50 LIRF 202150Z 13005KT 100V200 CAVOK 17/15 Q1019 NOSIG
 
LIRA - Roma Ciampino (129 m.)
Dati ricevuti: 20/04/2018 23:50
Sereno
Sereno
 Vento da E
Vento: E 7 km/h
TEMPERATURA: 16°C
P.to di Rugiada: 11°C
Umidità: 72%
Pressione: 1019 hPa
Condizioni generali: Sereno
Visibilità: oltre 10 km
2018/04/20 21:50 LIRA 202150Z 10004KT CAVOK 16/11 Q1019
 
LIRU - Roma Urbe (17 m.)
Dati ricevuti: 20/04/2018 19:50
Dati non aggiornati
Sereno
Sereno
 Vento da SSW
Vento: SSW 7 km/h
TEMPERATURA: 20°C
P.to di Rugiada: 13°C
Umidità: 64%
Pressione: 1018 hPa
Condizioni generali: Sereno
Visibilità: oltre 10 km
2018/04/20 17:50 LIRU 201750Z 21004KT 180V250 CAVOK 20/13 Q1018
 
LIVF - Frontone (570 m.)
Dati ricevuti: 17/04/2018 08:55
Dati non aggiornati
Pioggia debole, Poco nuvoloso
Pioggia debole, Poco nuvoloso
 Vento da WSW
Vento: WSW 4 km/h
TEMPERATURA: 13°C
P.to di Rugiada: 12°C
Umidità: 94%
Pressione: 1018 hPa
Condizioni generali: Pioggia debole
Nuvole: Poco nuvoloso
Visibilità: 6 km
Dettagli Nuvole: Qualche nuvola 427 m
Poco nuvoloso 732 m
2018/04/17 06:55 LIVF 170655Z 24002KT 6000 -RA FEW014 SCT024 13/12 Q1018 RMK OVC MON S W CIME INC VAL W CLD SCT VIS MIN 6000
 
LIRQ - Firenze Peretola (40 m.)
Dati ricevuti: 20/04/2018 23:50
Sereno
Sereno
 Vento da N
Vento: N 15 km/h
TEMPERATURA: 22°C
P.to di Rugiada: 7°C
Umidità: 38%
Pressione: 1020 hPa
Condizioni generali: Sereno
Visibilità: oltre 10 km
2018/04/20 21:50 LIRQ 202150Z 01008KT 330V070 CAVOK 22/07 Q1020
 
LIBP - Pescara (10 m.)
Dati ricevuti: 20/04/2018 22:50
Sereno
Sereno
 Vento da SW
Vento: SW 11 km/h
TEMPERATURA: 13°C
P.to di Rugiada: 10°C
Umidità: 82%
Pressione: 1020 hPa
Condizioni generali: Sereno
Visibilità: oltre 10 km
2018/04/20 20:50 LIBP 202050Z 23006KT CAVOK 13/10 Q1020
 
LIRV - Viterbo (300 m.)
Dati ricevuti: 20/04/2018 19:55
Dati non aggiornati
Sereno
Sereno
 Vento da direzione variabile
Vento: direzione variabile 0 km/h
TEMPERATURA: 20°C
P.to di Rugiada: 14°C
Umidità: 69%
Pressione: 1019 hPa
Condizioni generali: Sereno
Visibilità: oltre 10 km
2018/04/20 17:55 LIRV 201755Z /////KT CAVOK 20/14 Q1019
 
LIQN - Rieti (389 m.)
Dati ricevuti: 20/04/2018 19:50
Dati non aggiornati
Sereno
Sereno
 Vento da S
Vento: S 9 km/h
TEMPERATURA: 22°C
P.to di Rugiada: 12°C
Umidità: 53%
Pressione: 1018 hPa
Condizioni generali: Sereno
Visibilità: oltre 10 km
2018/04/20 17:50 LIQN 201750Z 18005KT CAVOK 22/12 Q1018
 
LIRG - Guidonia -RM- (88 m.)
Dati ricevuti: 20/04/2018 19:55
Dati non aggiornati
Sereno
Sereno
 Vento da S
Vento: S 9 km/h
TEMPERATURA: 21°C
P.to di Rugiada: 15°C
Umidità: 69%
Pressione: 1018 hPa
Condizioni generali: Sereno
Visibilità: oltre 10 km
2018/04/20 17:55 LIRG 201755Z 18005KT CAVOK 21/15 Q1018
 
LIRK - Terminillo -RI-(1874 m.)
Dati ricevuti: 20/04/2018 22:55

 Vento da direzione variabile
Vento: direzione variabile 0 km/h
2018/04/20 20:55 LIRK 202055Z AUTO /////KT //// ///// Q////
 
LIPK - Forlì (27 m.)
Dati ricevuti: 20/04/2018 17:50
Dati non aggiornati
Sereno
Sereno
 Vento da direzione variabile
Vento: direzione variabile 6 km/h
TEMPERATURA: 25°C
P.to di Rugiada: 8°C
Umidità: 34%
Pressione: 1021 hPa
Condizioni generali: Sereno
Visibilità: oltre 10 km
2018/04/20 15:50 LIPK 201550Z VRB03KT CAVOK 25/08 Q1021
 
LIRS - Grosseto (5 m.)
Dati ricevuti: 20/04/2018 22:55
Sereno
Sereno
 Vento da NNW
Vento: NNW 9 km/h
TEMPERATURA: 15°C
P.to di Rugiada: 13°C
Umidità: 88%
Pressione: 1019 hPa
Condizioni generali: Sereno
Visibilità: oltre 10 km
2018/04/20 20:55 LIRS 202055Z 34005KT CAVOK 15/13 Q1019
 
LIRP - Pisa S.Giusto (2 m.)
Dati ricevuti: 20/04/2018 23:45
Sereno
Sereno
 Vento da W
Vento: W 2 km/h
TEMPERATURA: 17°C
P.to di Rugiada: 11°C
Umidità: 68%
Pressione: 1020 hPa
Condizioni generali: Sereno
Visibilità: oltre 10 km
2018/04/20 21:45 LIRP 202145Z 28001KT CAVOK 17/11 Q1020 NOSIG